sensor_id;sensor_type;location;lat;lon;timestamp;temperature;humidity
41628;DHT22;27321;50.816;6.054;2024-01-27T00:02:59;6.60;65.60
41628;DHT22;27321;50.816;6.054;2024-01-27T00:06:00;6.60;65.50
41628;DHT22;27321;50.816;6.054;2024-01-27T00:09:05;6.50;65.80
41628;DHT22;27321;50.816;6.054;2024-01-27T00:12:07;6.40;65.90
41628;DHT22;27321;50.816;6.054;2024-01-27T00:15:08;6.40;66.00
41628;DHT22;27321;50.816;6.054;2024-01-27T00:18:10;6.40;66.00
41628;DHT22;27321;50.816;6.054;2024-01-27T00:21:11;6.30;66.30
41628;DHT22;27321;50.816;6.054;2024-01-27T00:24:13;6.30;66.30
41628;DHT22;27321;50.816;6.054;2024-01-27T00:27:15;6.30;66.40
41628;DHT22;27321;50.816;6.054;2024-01-27T00:30:16;6.30;66.40
41628;DHT22;27321;50.816;6.054;2024-01-27T00:33:17;6.30;66.40
41628;DHT22;27321;50.816;6.054;2024-01-27T00:36:18;6.30;66.50
41628;DHT22;27321;50.816;6.054;2024-01-27T00:39:20;6.30;66.50
41628;DHT22;27321;50.816;6.054;2024-01-27T00:42:21;6.20;66.60
41628;DHT22;27321;50.816;6.054;2024-01-27T00:45:25;6.20;66.60
41628;DHT22;27321;50.816;6.054;2024-01-27T00:48:28;6.20;66.60
41628;DHT22;27321;50.816;6.054;2024-01-27T00:51:29;6.10;66.60
41628;DHT22;27321;50.816;6.054;2024-01-27T00:54:30;6.10;66.70
41628;DHT22;27321;50.816;6.054;2024-01-27T00:57:31;6.00;66.60
41628;DHT22;27321;50.816;6.054;2024-01-27T01:00:32;6.00;66.50
41628;DHT22;27321;50.816;6.054;2024-01-27T01:03:33;6.00;66.80
41628;DHT22;27321;50.816;6.054;2024-01-27T01:06:34;6.00;66.70
41628;DHT22;27321;50.816;6.054;2024-01-27T01:09:35;6.00;67.00
41628;DHT22;27321;50.816;6.054;2024-01-27T01:12:36;6.00;67.00
41628;DHT22;27321;50.816;6.054;2024-01-27T01:15:40;5.90;67.00
41628;DHT22;27321;50.816;6.054;2024-01-27T01:18:41;5.90;67.20
41628;DHT22;27321;50.816;6.054;2024-01-27T01:21:42;5.80;66.90
41628;DHT22;27321;50.816;6.054;2024-01-27T01:24:43;5.90;67.20
41628;DHT22;27321;50.816;6.054;2024-01-27T01:27:44;5.80;67.20
41628;DHT22;27321;50.816;6.054;2024-01-27T01:30:46;5.90;67.20
41628;DHT22;27321;50.816;6.054;2024-01-27T01:33:47;5.80;67.20
41628;DHT22;27321;50.816;6.054;2024-01-27T01:36:49;5.90;67.20
41628;DHT22;27321;50.816;6.054;2024-01-27T01:39:50;5.80;67.20
41628;DHT22;27321;50.816;6.054;2024-01-27T01:42:51;5.80;67.20
41628;DHT22;27321;50.816;6.054;2024-01-27T01:45:52;5.80;67.30
41628;DHT22;27321;50.816;6.054;2024-01-27T01:48:56;5.70;67.40
41628;DHT22;27321;50.816;6.054;2024-01-27T01:51:57;5.80;67.40
41628;DHT22;27321;50.816;6.054;2024-01-27T01:54:59;5.80;67.40
41628;DHT22;27321;50.816;6.054;2024-01-27T01:58:06;5.80;67.40
41628;DHT22;27321;50.816;6.054;2024-01-27T02:01:07;5.70;67.50
41628;DHT22;27321;50.816;6.054;2024-01-27T02:04:09;5.70;67.40
41628;DHT22;27321;50.816;6.054;2024-01-27T02:07:09;5.70;67.70
41628;DHT22;27321;50.816;6.054;2024-01-27T02:10:15;5.80;67.40
41628;DHT22;27321;50.816;6.054;2024-01-27T02:13:23;5.80;67.60
41628;DHT22;27321;50.816;6.054;2024-01-27T02:16:24;5.80;67.60
41628;DHT22;27321;50.816;6.054;2024-01-27T02:19:28;5.80;67.60
41628;DHT22;27321;50.816;6.054;2024-01-27T02:22:28;5.80;67.70
41628;DHT22;27321;50.816;6.054;2024-01-27T02:25:30;5.80;67.40
41628;DHT22;27321;50.816;6.054;2024-01-27T02:28:32;5.80;67.40
41628;DHT22;27321;50.816;6.054;2024-01-27T02:31:34;5.80;67.30
41628;DHT22;27321;50.816;6.054;2024-01-27T02:34:35;5.80;67.40
41628;DHT22;27321;50.816;6.054;2024-01-27T02:37:36;5.70;67.40
41628;DHT22;27321;50.816;6.054;2024-01-27T02:40:37;5.80;67.30
41628;DHT22;27321;50.816;6.054;2024-01-27T02:43:38;5.80;67.40
41628;DHT22;27321;50.816;6.054;2024-01-27T02:46:39;5.70;67.40
41628;DHT22;27321;50.816;6.054;2024-01-27T02:49:41;5.80;67.30
41628;DHT22;27321;50.816;6.054;2024-01-27T02:52:42;5.70;67.40
41628;DHT22;27321;50.816;6.054;2024-01-27T02:55:43;5.70;67.30
41628;DHT22;27321;50.816;6.054;2024-01-27T02:58:44;5.70;67.30
41628;DHT22;27321;50.816;6.054;2024-01-27T03:01:45;5.70;67.40
41628;DHT22;27321;50.816;6.054;2024-01-27T03:04:45;5.70;67.40
41628;DHT22;27321;50.816;6.054;2024-01-27T03:07:47;5.70;67.20
41628;DHT22;27321;50.816;6.054;2024-01-27T03:10:48;5.70;67.30
41628;DHT22;27321;50.816;6.054;2024-01-27T03:13:49;5.70;67.10
41628;DHT22;27321;50.816;6.054;2024-01-27T03:16:50;5.70;67.20
41628;DHT22;27321;50.816;6.054;2024-01-27T03:19:52;5.70;67.10
41628;DHT22;27321;50.816;6.054;2024-01-27T03:22:53;5.70;67.10
41628;DHT22;27321;50.816;6.054;2024-01-27T03:25:55;5.60;67.10
41628;DHT22;27321;50.816;6.054;2024-01-27T03:28:56;5.60;67.10
41628;DHT22;27321;50.816;6.054;2024-01-27T03:31:58;5.60;67.10
41628;DHT22;27321;50.816;6.054;2024-01-27T03:35:00;5.60;67.20
41628;DHT22;27321;50.816;6.054;2024-01-27T03:38:03;5.60;67.30
41628;DHT22;27321;50.816;6.054;2024-01-27T03:41:05;5.50;67.20
41628;DHT22;27321;50.816;6.054;2024-01-27T03:44:07;5.50;67.20
41628;DHT22;27321;50.816;6.054;2024-01-27T03:47:07;5.50;67.30
41628;DHT22;27321;50.816;6.054;2024-01-27T03:50:09;5.40;67.30
41628;DHT22;27321;50.816;6.054;2024-01-27T03:53:10;5.40;67.30
41628;DHT22;27321;50.816;6.054;2024-01-27T03:56:12;5.40;67.40
41628;DHT22;27321;50.816;6.054;2024-01-27T03:59:13;5.40;67.20
41628;DHT22;27321;50.816;6.054;2024-01-27T04:02:14;5.30;67.60
41628;DHT22;27321;50.816;6.054;2024-01-27T04:05:15;5.40;67.50
41628;DHT22;27321;50.816;6.054;2024-01-27T04:08:16;5.40;67.50
41628;DHT22;27321;50.816;6.054;2024-01-27T04:11:21;5.40;67.50
41628;DHT22;27321;50.816;6.054;2024-01-27T04:14:22;5.40;67.30
41628;DHT22;27321;50.816;6.054;2024-01-27T04:17:23;5.30;67.30
41628;DHT22;27321;50.816;6.054;2024-01-27T04:20:24;5.30;67.40
41628;DHT22;27321;50.816;6.054;2024-01-27T04:23:28;5.30;67.40
41628;DHT22;27321;50.816;6.054;2024-01-27T04:26:29;5.30;67.40
41628;DHT22;27321;50.816;6.054;2024-01-27T04:29:30;5.30;67.70
41628;DHT22;27321;50.816;6.054;2024-01-27T04:32:31;5.30;67.70
41628;DHT22;27321;50.816;6.054;2024-01-27T04:35:32;5.30;67.60
41628;DHT22;27321;50.816;6.054;2024-01-27T04:38:33;5.30;67.70
41628;DHT22;27321;50.816;6.054;2024-01-27T04:41:34;5.30;67.70
41628;DHT22;27321;50.816;6.054;2024-01-27T04:44:35;5.30;67.70
41628;DHT22;27321;50.816;6.054;2024-01-27T04:47:41;5.20;67.80
41628;DHT22;27321;50.816;6.054;2024-01-27T04:50:42;5.20;67.80
41628;DHT22;27321;50.816;6.054;2024-01-27T04:53:42;5.20;67.80
41628;DHT22;27321;50.816;6.054;2024-01-27T04:56:44;5.20;67.90
41628;DHT22;27321;50.816;6.054;2024-01-27T04:59:45;5.10;67.90
41628;DHT22;27321;50.816;6.054;2024-01-27T05:02:46;5.10;67.70
41628;DHT22;27321;50.816;6.054;2024-01-27T05:05:47;5.10;67.80
41628;DHT22;27321;50.816;6.054;2024-01-27T05:08:48;5.00;67.80
41628;DHT22;27321;50.816;6.054;2024-01-27T05:11:49;5.00;68.00
41628;DHT22;27321;50.816;6.054;2024-01-27T05:14:53;5.00;68.00
41628;DHT22;27321;50.816;6.054;2024-01-27T05:17:54;4.90;68.00
41628;DHT22;27321;50.816;6.054;2024-01-27T05:20:55;4.90;68.10
41628;DHT22;27321;50.816;6.054;2024-01-27T05:23:56;4.80;68.20
41628;DHT22;27321;50.816;6.054;2024-01-27T05:26:57;4.80;68.10
41628;DHT22;27321;50.816;6.054;2024-01-27T05:29:58;4.80;68.20
41628;DHT22;27321;50.816;6.054;2024-01-27T05:32:59;4.80;68.40
41628;DHT22;27321;50.816;6.054;2024-01-27T05:36:00;4.80;68.40
41628;DHT22;27321;50.816;6.054;2024-01-27T05:39:02;4.80;68.40
41628;DHT22;27321;50.816;6.054;2024-01-27T05:42:05;4.70;68.50
41628;DHT22;27321;50.816;6.054;2024-01-27T05:45:06;4.70;68.40
41628;DHT22;27321;50.816;6.054;2024-01-27T05:48:08;4.70;68.60
41628;DHT22;27321;50.816;6.054;2024-01-27T05:51:09;4.60;68.50
41628;DHT22;27321;50.816;6.054;2024-01-27T05:54:10;4.60;68.70
41628;DHT22;27321;50.816;6.054;2024-01-27T05:57:14;4.60;68.80
41628;DHT22;27321;50.816;6.054;2024-01-27T06:00:15;4.60;68.80
41628;DHT22;27321;50.816;6.054;2024-01-27T06:03:16;4.60;68.70
41628;DHT22;27321;50.816;6.054;2024-01-27T06:06:18;4.60;68.60
41628;DHT22;27321;50.816;6.054;2024-01-27T06:09:19;4.60;69.10
41628;DHT22;27321;50.816;6.054;2024-01-27T06:12:20;4.60;69.10
41628;DHT22;27321;50.816;6.054;2024-01-27T06:15:21;4.60;69.00
41628;DHT22;27321;50.816;6.054;2024-01-27T06:18:22;4.60;68.90
41628;DHT22;27321;50.816;6.054;2024-01-27T06:21:25;4.60;68.80
41628;DHT22;27321;50.816;6.054;2024-01-27T06:24:26;4.60;68.90
41628;DHT22;27321;50.816;6.054;2024-01-27T06:27:27;4.60;68.80
41628;DHT22;27321;50.816;6.054;2024-01-27T06:30:28;4.60;68.80
41628;DHT22;27321;50.816;6.054;2024-01-27T06:33:29;4.60;68.80
41628;DHT22;27321;50.816;6.054;2024-01-27T06:36:30;4.60;68.80
41628;DHT22;27321;50.816;6.054;2024-01-27T06:39:33;4.60;68.80
41628;DHT22;27321;50.816;6.054;2024-01-27T06:42:34;4.60;68.60
41628;DHT22;27321;50.816;6.054;2024-01-27T06:45:35;4.60;68.70
41628;DHT22;27321;50.816;6.054;2024-01-27T06:48:36;4.60;68.50
41628;DHT22;27321;50.816;6.054;2024-01-27T06:51:37;4.50;68.50
41628;DHT22;27321;50.816;6.054;2024-01-27T06:54:38;4.50;68.70
41628;DHT22;27321;50.816;6.054;2024-01-27T06:57:44;4.50;68.80
41628;DHT22;27321;50.816;6.054;2024-01-27T07:00:45;4.50;69.00
41628;DHT22;27321;50.816;6.054;2024-01-27T07:03:46;4.50;68.90
41628;DHT22;27321;50.816;6.054;2024-01-27T07:06:47;4.50;68.70
41628;DHT22;27321;50.816;6.054;2024-01-27T07:09:48;4.50;68.80
41628;DHT22;27321;50.816;6.054;2024-01-27T07:12:49;4.50;69.00
41628;DHT22;27321;50.816;6.054;2024-01-27T07:15:50;4.50;69.00
41628;DHT22;27321;50.816;6.054;2024-01-27T07:18:51;4.50;69.00
41628;DHT22;27321;50.816;6.054;2024-01-27T07:21:52;4.50;68.80
41628;DHT22;27321;50.816;6.054;2024-01-27T07:24:53;4.50;68.80
41628;DHT22;27321;50.816;6.054;2024-01-27T07:27:56;4.50;68.90
41628;DHT22;27321;50.816;6.054;2024-01-27T07:30:57;4.50;69.10
41628;DHT22;27321;50.816;6.054;2024-01-27T07:33:58;4.50;69.10
41628;DHT22;27321;50.816;6.054;2024-01-27T07:36:59;4.50;69.30
41628;DHT22;27321;50.816;6.054;2024-01-27T07:40:00;4.50;69.30
41628;DHT22;27321;50.816;6.054;2024-01-27T07:43:03;4.60;69.30
41628;DHT22;27321;50.816;6.054;2024-01-27T07:46:04;4.60;69.10
41628;DHT22;27321;50.816;6.054;2024-01-27T07:49:06;4.60;69.40
41628;DHT22;27321;50.816;6.054;2024-01-27T07:52:07;4.70;69.30
41628;DHT22;27321;50.816;6.054;2024-01-27T07:55:09;4.70;69.30
41628;DHT22;27321;50.816;6.054;2024-01-27T07:58:10;4.80;69.30
41628;DHT22;27321;50.816;6.054;2024-01-27T08:01:15;4.80;69.10
41628;DHT22;27321;50.816;6.054;2024-01-27T08:04:19;4.80;69.20
41628;DHT22;27321;50.816;6.054;2024-01-27T08:07:20;4.90;69.10
41628;DHT22;27321;50.816;6.054;2024-01-27T08:10:21;4.90;69.10
41628;DHT22;27321;50.816;6.054;2024-01-27T08:13:22;4.90;69.00
41628;DHT22;27321;50.816;6.054;2024-01-27T08:16:23;4.90;69.10
41628;DHT22;27321;50.816;6.054;2024-01-27T08:19:25;5.00;69.10
41628;DHT22;27321;50.816;6.054;2024-01-27T08:22:26;5.00;69.10
41628;DHT22;27321;50.816;6.054;2024-01-27T08:25:27;5.00;69.30
41628;DHT22;27321;50.816;6.054;2024-01-27T08:28:28;5.00;69.30
41628;DHT22;27321;50.816;6.054;2024-01-27T08:31:29;5.00;69.40
41628;DHT22;27321;50.816;6.054;2024-01-27T08:34:30;5.00;69.40
41628;DHT22;27321;50.816;6.054;2024-01-27T08:37:31;5.10;69.40
41628;DHT22;27321;50.816;6.054;2024-01-27T08:40:39;5.00;69.40
41628;DHT22;27321;50.816;6.054;2024-01-27T08:43:40;5.00;69.60
41628;DHT22;27321;50.816;6.054;2024-01-27T08:46:41;5.10;69.80
41628;DHT22;27321;50.816;6.054;2024-01-27T08:49:42;5.20;69.70
41628;DHT22;27321;50.816;6.054;2024-01-27T08:52:43;5.30;69.80
41628;DHT22;27321;50.816;6.054;2024-01-27T08:55:44;5.30;69.80
41628;DHT22;27321;50.816;6.054;2024-01-27T08:58:45;5.30;69.80
41628;DHT22;27321;50.816;6.054;2024-01-27T09:01:49;5.30;69.80
41628;DHT22;27321;50.816;6.054;2024-01-27T09:04:51;5.30;69.80
41628;DHT22;27321;50.816;6.054;2024-01-27T09:07:52;5.40;69.80
41628;DHT22;27321;50.816;6.054;2024-01-27T09:10:53;5.50;69.70
41628;DHT22;27321;50.816;6.054;2024-01-27T09:13:54;5.60;69.70
41628;DHT22;27321;50.816;6.054;2024-01-27T09:16:55;5.60;69.40
41628;DHT22;27321;50.816;6.054;2024-01-27T09:19:56;5.70;69.00
41628;DHT22;27321;50.816;6.054;2024-01-27T09:22:58;5.80;68.90
41628;DHT22;27321;50.816;6.054;2024-01-27T09:25:59;5.80;68.40
41628;DHT22;27321;50.816;6.054;2024-01-27T09:28:59;5.90;68.60
41628;DHT22;27321;50.816;6.054;2024-01-27T09:32:02;5.90;68.40
41628;DHT22;27321;50.816;6.054;2024-01-27T09:35:04;6.00;68.00
41628;DHT22;27321;50.816;6.054;2024-01-27T09:38:05;6.10;68.00
41628;DHT22;27321;50.816;6.054;2024-01-27T09:41:12;6.20;68.00
41628;DHT22;27321;50.816;6.054;2024-01-27T09:44:18;6.20;67.40
41628;DHT22;27321;50.816;6.054;2024-01-27T09:47:20;6.30;67.30
41628;DHT22;27321;50.816;6.054;2024-01-27T09:50:21;6.40;67.20
41628;DHT22;27321;50.816;6.054;2024-01-27T09:53:23;6.50;67.00
41628;DHT22;27321;50.816;6.054;2024-01-27T09:56:25;6.60;66.80
41628;DHT22;27321;50.816;6.054;2024-01-27T09:59:28;6.60;66.30
41628;DHT22;27321;50.816;6.054;2024-01-27T10:02:33;6.70;66.20
41628;DHT22;27321;50.816;6.054;2024-01-27T10:05:35;6.70;66.00
41628;DHT22;27321;50.816;6.054;2024-01-27T10:08:37;6.70;65.80
41628;DHT22;27321;50.816;6.054;2024-01-27T10:11:39;6.80;66.20
41628;DHT22;27321;50.816;6.054;2024-01-27T10:14:44;6.80;65.90
41628;DHT22;27321;50.816;6.054;2024-01-27T10:17:46;6.80;65.70
41628;DHT22;27321;50.816;6.054;2024-01-27T10:20:48;6.90;65.10
41628;DHT22;27321;50.816;6.054;2024-01-27T10:23:50;6.90;65.00
41628;DHT22;27321;50.816;6.054;2024-01-27T10:26:52;7.00;64.20
41628;DHT22;27321;50.816;6.054;2024-01-27T10:29:59;7.00;64.30
41628;DHT22;27321;50.816;6.054;2024-01-27T10:33:03;7.10;64.00
41628;DHT22;27321;50.816;6.054;2024-01-27T10:36:04;7.10;63.60
41628;DHT22;27321;50.816;6.054;2024-01-27T10:39:20;7.30;64.20
41628;DHT22;27321;50.816;6.054;2024-01-27T10:42:22;7.30;64.10
41628;DHT22;27321;50.816;6.054;2024-01-27T10:45:23;7.40;63.10
41628;DHT22;27321;50.816;6.054;2024-01-27T10:48:26;7.40;63.00
41628;DHT22;27321;50.816;6.054;2024-01-27T10:51:31;7.50;62.90
41628;DHT22;27321;50.816;6.054;2024-01-27T10:54:39;7.50;62.70
41628;DHT22;27321;50.816;6.054;2024-01-27T10:57:41;7.60;62.90
41628;DHT22;27321;50.816;6.054;2024-01-27T11:00:43;7.60;62.90
41628;DHT22;27321;50.816;6.054;2024-01-27T11:03:47;7.70;62.80
41628;DHT22;27321;50.816;6.054;2024-01-27T11:06:49;7.70;61.90
41628;DHT22;27321;50.816;6.054;2024-01-27T11:09:52;7.70;61.70
41628;DHT22;27321;50.816;6.054;2024-01-27T11:12:53;7.70;61.50
41628;DHT22;27321;50.816;6.054;2024-01-27T11:15:57;7.70;61.60
41628;DHT22;27321;50.816;6.054;2024-01-27T11:19:05;7.70;61.90
41628;DHT22;27321;50.816;6.054;2024-01-27T11:22:06;7.80;61.70
41628;DHT22;27321;50.816;6.054;2024-01-27T11:28:16;7.80;61.70
41628;DHT22;27321;50.816;6.054;2024-01-27T11:31:18;7.80;62.00
41628;DHT22;27321;50.816;6.054;2024-01-27T11:34:20;7.90;62.20
41628;DHT22;27321;50.816;6.054;2024-01-27T11:37:21;7.80;62.20
41628;DHT22;27321;50.816;6.054;2024-01-27T11:40:25;7.90;61.30
41628;DHT22;27321;50.816;6.054;2024-01-27T11:43:27;7.90;61.10
41628;DHT22;27321;50.816;6.054;2024-01-27T11:46:28;7.90;61.10
41628;DHT22;27321;50.816;6.054;2024-01-27T11:49:29;8.00;61.50
41628;DHT22;27321;50.816;6.054;2024-01-27T11:52:30;8.10;61.00
41628;DHT22;27321;50.816;6.054;2024-01-27T11:55:32;8.10;60.70
41628;DHT22;27321;50.816;6.054;2024-01-27T11:58:33;8.20;60.00
41628;DHT22;27321;50.816;6.054;2024-01-27T12:01:34;8.20;60.00
41628;DHT22;27321;50.816;6.054;2024-01-27T12:04:35;8.30;59.80
41628;DHT22;27321;50.816;6.054;2024-01-27T12:07:36;8.30;60.00
41628;DHT22;27321;50.816;6.054;2024-01-27T12:10:37;8.20;59.80
41628;DHT22;27321;50.816;6.054;2024-01-27T12:13:38;8.30;59.80
41628;DHT22;27321;50.816;6.054;2024-01-27T12:16:40;8.30;60.10
41628;DHT22;27321;50.816;6.054;2024-01-27T12:19:50;8.30;58.90
41628;DHT22;27321;50.816;6.054;2024-01-27T12:23:07;8.40;59.60
41628;DHT22;27321;50.816;6.054;2024-01-27T12:26:14;8.40;58.80
41628;DHT22;27321;50.816;6.054;2024-01-27T12:29:15;8.40;58.70
41628;DHT22;27321;50.816;6.054;2024-01-27T12:32:17;8.40;58.90
41628;DHT22;27321;50.816;6.054;2024-01-27T12:35:19;8.40;58.70
41628;DHT22;27321;50.816;6.054;2024-01-27T12:38:21;8.50;58.80
41628;DHT22;27321;50.816;6.054;2024-01-27T12:41:23;8.50;59.10
41628;DHT22;27321;50.816;6.054;2024-01-27T12:44:25;8.50;59.50
41628;DHT22;27321;50.816;6.054;2024-01-27T12:47:26;8.60;59.30
41628;DHT22;27321;50.816;6.054;2024-01-27T12:50:27;8.70;59.60
41628;DHT22;27321;50.816;6.054;2024-01-27T12:53:28;8.70;59.10
41628;DHT22;27321;50.816;6.054;2024-01-27T12:56:29;8.70;58.40
41628;DHT22;27321;50.816;6.054;2024-01-27T12:59:30;8.80;58.30
41628;DHT22;27321;50.816;6.054;2024-01-27T13:02:32;8.80;58.40
41628;DHT22;27321;50.816;6.054;2024-01-27T13:05:33;8.80;57.80
41628;DHT22;27321;50.816;6.054;2024-01-27T13:08:35;8.80;58.60
41628;DHT22;27321;50.816;6.054;2024-01-27T13:11:36;8.80;58.90
41628;DHT22;27321;50.816;6.054;2024-01-27T13:14:36;8.90;59.10
41628;DHT22;27321;50.816;6.054;2024-01-27T13:17:37;8.90;58.00
41628;DHT22;27321;50.816;6.054;2024-01-27T13:20:38;9.00;57.70
41628;DHT22;27321;50.816;6.054;2024-01-27T13:23:40;9.10;58.30
41628;DHT22;27321;50.816;6.054;2024-01-27T13:26:41;9.00;56.70
41628;DHT22;27321;50.816;6.054;2024-01-27T13:29:42;9.10;56.60
41628;DHT22;27321;50.816;6.054;2024-01-27T13:32:43;9.10;56.80
41628;DHT22;27321;50.816;6.054;2024-01-27T13:35:44;9.20;57.20
41628;DHT22;27321;50.816;6.054;2024-01-27T13:38:47;9.20;57.30
41628;DHT22;27321;50.816;6.054;2024-01-27T13:41:48;9.20;56.70
41628;DHT22;27321;50.816;6.054;2024-01-27T13:44:49;9.20;55.60
41628;DHT22;27321;50.816;6.054;2024-01-27T13:47:50;9.20;55.40
41628;DHT22;27321;50.816;6.054;2024-01-27T13:50:52;9.20;55.90
41628;DHT22;27321;50.816;6.054;2024-01-27T13:53:53;9.30;56.50
41628;DHT22;27321;50.816;6.054;2024-01-27T13:56:54;9.30;55.30
41628;DHT22;27321;50.816;6.054;2024-01-27T13:59:55;9.20;55.00
41628;DHT22;27321;50.816;6.054;2024-01-27T14:02:57;9.30;55.50
41628;DHT22;27321;50.816;6.054;2024-01-27T14:05:58;9.20;55.90
41628;DHT22;27321;50.816;6.054;2024-01-27T14:08:59;9.30;56.20
41628;DHT22;27321;50.816;6.054;2024-01-27T14:12:00;9.30;55.90
41628;DHT22;27321;50.816;6.054;2024-01-27T14:15:04;9.30;55.60
41628;DHT22;27321;50.816;6.054;2024-01-27T14:18:07;9.30;56.30
41628;DHT22;27321;50.816;6.054;2024-01-27T14:21:10;9.30;56.50
41628;DHT22;27321;50.816;6.054;2024-01-27T14:24:11;9.30;56.60
41628;DHT22;27321;50.816;6.054;2024-01-27T14:27:12;9.30;56.50
41628;DHT22;27321;50.816;6.054;2024-01-27T14:30:14;9.30;56.80
41628;DHT22;27321;50.816;6.054;2024-01-27T14:33:16;9.30;56.80
41628;DHT22;27321;50.816;6.054;2024-01-27T14:36:21;9.30;57.10
41628;DHT22;27321;50.816;6.054;2024-01-27T14:39:24;9.30;57.00
41628;DHT22;27321;50.816;6.054;2024-01-27T14:42:24;9.30;57.00
41628;DHT22;27321;50.816;6.054;2024-01-27T14:45:25;9.30;57.30
41628;DHT22;27321;50.816;6.054;2024-01-27T14:48:26;9.20;56.50
41628;DHT22;27321;50.816;6.054;2024-01-27T14:51:27;9.20;56.90
41628;DHT22;27321;50.816;6.054;2024-01-27T14:54:28;9.20;57.10
41628;DHT22;27321;50.816;6.054;2024-01-27T14:57:30;9.10;56.80
41628;DHT22;27321;50.816;6.054;2024-01-27T15:00:31;9.20;57.00
41628;DHT22;27321;50.816;6.054;2024-01-27T15:03:32;9.10;56.80
41628;DHT22;27321;50.816;6.054;2024-01-27T15:06:33;9.10;57.10
41628;DHT22;27321;50.816;6.054;2024-01-27T15:09:34;9.00;57.20
41628;DHT22;27321;50.816;6.054;2024-01-27T15:12:35;9.00;57.20
41628;DHT22;27321;50.816;6.054;2024-01-27T15:15:38;8.90;57.70
41628;DHT22;27321;50.816;6.054;2024-01-27T15:18:39;8.90;58.40
41628;DHT22;27321;50.816;6.054;2024-01-27T15:21:44;8.90;59.30
41628;DHT22;27321;50.816;6.054;2024-01-27T15:24:46;8.90;59.80
41628;DHT22;27321;50.816;6.054;2024-01-27T15:27:48;8.80;60.20
41628;DHT22;27321;50.816;6.054;2024-01-27T15:30:51;8.80;60.50
41628;DHT22;27321;50.816;6.054;2024-01-27T15:33:52;8.80;61.20
41628;DHT22;27321;50.816;6.054;2024-01-27T15:36:53;8.80;61.60
41628;DHT22;27321;50.816;6.054;2024-01-27T15:39:54;8.80;62.10
41628;DHT22;27321;50.816;6.054;2024-01-27T15:42:55;8.80;62.50
41628;DHT22;27321;50.816;6.054;2024-01-27T15:45:57;8.70;62.90
41628;DHT22;27321;50.816;6.054;2024-01-27T15:48:57;8.60;63.40
41628;DHT22;27321;50.816;6.054;2024-01-27T15:51:58;8.60;63.60
41628;DHT22;27321;50.816;6.054;2024-01-27T15:55:00;8.50;63.80
41628;DHT22;27321;50.816;6.054;2024-01-27T15:58:02;8.50;64.00
41628;DHT22;27321;50.816;6.054;2024-01-27T16:01:04;8.50;64.20
41628;DHT22;27321;50.816;6.054;2024-01-27T16:04:05;8.30;64.50
41628;DHT22;27321;50.816;6.054;2024-01-27T16:07:06;8.30;64.60
41628;DHT22;27321;50.816;6.054;2024-01-27T16:10:07;8.30;64.90
41628;DHT22;27321;50.816;6.054;2024-01-27T16:13:08;8.30;64.80
41628;DHT22;27321;50.816;6.054;2024-01-27T16:16:09;8.20;64.90
41628;DHT22;27321;50.816;6.054;2024-01-27T16:19:10;8.10;64.90
41628;DHT22;27321;50.816;6.054;2024-01-27T16:22:11;8.10;65.10
41628;DHT22;27321;50.816;6.054;2024-01-27T16:25:12;8.00;65.00
41628;DHT22;27321;50.816;6.054;2024-01-27T16:28:14;8.00;65.10
41628;DHT22;27321;50.816;6.054;2024-01-27T16:31:15;7.90;65.20
41628;DHT22;27321;50.816;6.054;2024-01-27T16:34:16;7.90;65.40
41628;DHT22;27321;50.816;6.054;2024-01-27T16:37:17;7.80;65.30
41628;DHT22;27321;50.816;6.054;2024-01-27T16:40:19;7.80;65.20
41628;DHT22;27321;50.816;6.054;2024-01-27T16:43:20;7.80;65.10
41628;DHT22;27321;50.816;6.054;2024-01-27T16:46:23;7.70;65.20
41628;DHT22;27321;50.816;6.054;2024-01-27T16:49:25;7.70;65.30
41628;DHT22;27321;50.816;6.054;2024-01-27T16:52:26;7.60;65.30
41628;DHT22;27321;50.816;6.054;2024-01-27T16:55:27;7.50;65.50
41628;DHT22;27321;50.816;6.054;2024-01-27T16:58:28;7.40;65.70
41628;DHT22;27321;50.816;6.054;2024-01-27T17:01:29;7.40;65.70
41628;DHT22;27321;50.816;6.054;2024-01-27T17:04:30;7.40;65.70
41628;DHT22;27321;50.816;6.054;2024-01-27T17:07:31;7.30;65.80
41628;DHT22;27321;50.816;6.054;2024-01-27T17:10:33;7.30;65.90
41628;DHT22;27321;50.816;6.054;2024-01-27T17:13:34;7.30;65.80
41628;DHT22;27321;50.816;6.054;2024-01-27T17:16:35;7.20;65.90
41628;DHT22;27321;50.816;6.054;2024-01-27T17:19:36;7.20;65.80
41628;DHT22;27321;50.816;6.054;2024-01-27T17:22:37;7.10;65.80
41628;DHT22;27321;50.816;6.054;2024-01-27T17:25:38;7.10;65.80
41628;DHT22;27321;50.816;6.054;2024-01-27T17:28:39;7.00;65.90
41628;DHT22;27321;50.816;6.054;2024-01-27T17:31:41;7.00;65.80
41628;DHT22;27321;50.816;6.054;2024-01-27T17:34:42;7.00;66.00
41628;DHT22;27321;50.816;6.054;2024-01-27T17:37:43;6.90;66.00
41628;DHT22;27321;50.816;6.054;2024-01-27T17:40:44;7.00;65.90
41628;DHT22;27321;50.816;6.054;2024-01-27T17:43:45;6.90;65.90
41628;DHT22;27321;50.816;6.054;2024-01-27T17:46:46;6.90;66.10
41628;DHT22;27321;50.816;6.054;2024-01-27T17:49:47;6.90;66.20
41628;DHT22;27321;50.816;6.054;2024-01-27T17:52:48;6.80;66.00
41628;DHT22;27321;50.816;6.054;2024-01-27T17:55:50;6.80;66.10
41628;DHT22;27321;50.816;6.054;2024-01-27T17:58:53;6.80;66.00
41628;DHT22;27321;50.816;6.054;2024-01-27T18:01:54;6.80;65.90
41628;DHT22;27321;50.816;6.054;2024-01-27T18:04:55;6.80;66.10
41628;DHT22;27321;50.816;6.054;2024-01-27T18:07:56;6.80;66.20
41628;DHT22;27321;50.816;6.054;2024-01-27T18:10:57;6.80;66.00
41628;DHT22;27321;50.816;6.054;2024-01-27T18:13:58;6.70;66.10
41628;DHT22;27321;50.816;6.054;2024-01-27T18:16:58;6.80;65.90
41628;DHT22;27321;50.816;6.054;2024-01-27T18:20:00;6.70;66.10
41628;DHT22;27321;50.816;6.054;2024-01-27T18:23:02;6.80;66.20
41628;DHT22;27321;50.816;6.054;2024-01-27T18:26:03;6.70;66.20
41628;DHT22;27321;50.816;6.054;2024-01-27T18:29:04;6.70;66.20
41628;DHT22;27321;50.816;6.054;2024-01-27T18:32:05;6.60;66.20
41628;DHT22;27321;50.816;6.054;2024-01-27T18:35:06;6.60;66.20
41628;DHT22;27321;50.816;6.054;2024-01-27T18:38:07;6.60;66.20
41628;DHT22;27321;50.816;6.054;2024-01-27T18:41:09;6.60;66.40
41628;DHT22;27321;50.816;6.054;2024-01-27T18:44:10;6.60;66.30
41628;DHT22;27321;50.816;6.054;2024-01-27T18:47:13;6.60;66.40
41628;DHT22;27321;50.816;6.054;2024-01-27T18:50:14;6.50;66.40
41628;DHT22;27321;50.816;6.054;2024-01-27T18:53:15;6.50;66.30
41628;DHT22;27321;50.816;6.054;2024-01-27T18:56:16;6.50;66.10
41628;DHT22;27321;50.816;6.054;2024-01-27T18:59:17;6.50;66.20
41628;DHT22;27321;50.816;6.054;2024-01-27T19:02:18;6.50;66.20
41628;DHT22;27321;50.816;6.054;2024-01-27T19:05:19;6.50;66.10
41628;DHT22;27321;50.816;6.054;2024-01-27T19:08:20;6.50;66.10
41628;DHT22;27321;50.816;6.054;2024-01-27T19:11:21;6.50;66.20
41628;DHT22;27321;50.816;6.054;2024-01-27T19:14:22;6.50;66.30
41628;DHT22;27321;50.816;6.054;2024-01-27T19:17:22;6.50;66.30
41628;DHT22;27321;50.816;6.054;2024-01-27T19:20:23;6.50;66.30
41628;DHT22;27321;50.816;6.054;2024-01-27T19:23:25;6.50;66.30
41628;DHT22;27321;50.816;6.054;2024-01-27T19:26:25;6.50;66.30
41628;DHT22;27321;50.816;6.054;2024-01-27T19:29:26;6.40;66.60